»·PEaware :: SKY26 KLVM-6S0

SKY26 :: KLVM-6S0

FLIGHT INFORMATION

Flight Status: Arrived
Operator:
Sky High Charters
More flights by this operator :: More flights under this callsign
Pilot: Greg L. (27107)
Aircraft: CIRRUS VISIONJET
(SF50)
More flights by this aircraft type
Origin: KLVM Mission
United States
Destination: 6S0 Big Timber
United States
More flights between these airports :: More routes between these airports
Route: LVM2 LVM V2 SUBKY
File this flight plan on PilotEdge
Remarks:
Altitude:
(Current/Filed)
7,000ft
Speed:
(Current/Filed)
200kts
Departed: 30-Dec-20 12:55 PM
Arrived: 30-Dec-20 01:23 PM
Distance/Time
Traveled:
21nm/0:28
Distance/Time
To Go:
Arrived

Flight Plot

Page will automatically refresh every two minutes.

Flight plan parsing failed; only flown route is shown


Map Options




Map Legend


Flown Route
Filed Route
Departure Airport
Arrival Airport
Navaid (VOR, NDB)
Fix

Horizontal Profiles

Position Reports

Time Latitude Longitude Heading Altitude Ground
Speed
30-Dec-20 12:24 45.697348 -110.452390 232 4652ft 0kts
30-Dec-20 12:25 45.697348 -110.452390 232 4652ft 0kts
30-Dec-20 12:26 45.697348 -110.452390 232 4652ft 0kts
30-Dec-20 12:27 45.697348 -110.452390 232 4652ft 0kts
30-Dec-20 12:28 45.697348 -110.452390 232 4652ft 0kts
30-Dec-20 12:29 45.697348 -110.452390 232 4652ft 0kts
30-Dec-20 12:30 45.697348 -110.452390 232 4652ft 0kts
30-Dec-20 12:31 45.697348 -110.452390 232 4652ft 0kts
30-Dec-20 12:32 45.697348 -110.452390 232 4652ft 0kts
30-Dec-20 12:33 45.697348 -110.452390 232 4652ft 0kts
30-Dec-20 12:34 45.697348 -110.452390 232 4652ft 0kts
30-Dec-20 12:35 45.697348 -110.452390 232 4652ft 0kts
30-Dec-20 12:36 45.697348 -110.452390 232 4652ft 0kts
30-Dec-20 12:37 45.697348 -110.452390 232 4652ft 0kts
30-Dec-20 12:38 45.697348 -110.452390 232 4652ft 0kts
30-Dec-20 12:39 45.697348 -110.452390 232 4652ft 0kts
30-Dec-20 12:40 45.697348 -110.452390 232 4652ft 0kts
30-Dec-20 12:41 45.696958 -110.451790 52 4653ft 6kts
30-Dec-20 12:42 45.698200 -110.449671 57 4653ft 0kts
30-Dec-20 12:43 45.698825 -110.448111 63 4653ft 6kts
30-Dec-20 12:44 45.700256 -110.444597 55 4650ft 10kts
30-Dec-20 12:46 45.700143 -110.442291 149 4650ft 2kts
30-Dec-20 12:47 45.702074 -110.437984 11 4642ft 11kts
30-Dec-20 12:48 45.702800 -110.437578 90 4640ft 0kts
30-Dec-20 12:49 45.702800 -110.437578 90 4640ft 0kts
30-Dec-20 12:50 45.702800 -110.437578 90 4640ft 0kts
30-Dec-20 12:51 45.702800 -110.437578 90 4640ft 0kts
30-Dec-20 12:52 45.702800 -110.437578 90 4640ft 0kts
30-Dec-20 12:53 45.702800 -110.437578 90 4640ft 0kts
30-Dec-20 12:54 45.702546 -110.437131 154 4639ft 10kts
30-Dec-20 12:55 45.694874 -110.459048 271 5282ft 106kts
30-Dec-20 12:56 45.691599 -110.505093 249 6680ft 134kts
30-Dec-20 12:57 45.688887 -110.560670 270 8145ft 139kts
30-Dec-20 12:58 45.721268 -110.586059 31 9630ft 197kts
30-Dec-20 12:59 45.706286 -110.508302 130 11134ft 217kts
30-Dec-20 13:00 45.701548 -110.424671 71 12569ft 216kts
30-Dec-20 13:00 45.705997 -110.348475 78 12968ft 222kts
30-Dec-20 13:02 45.713699 -110.241570 77 12969ft 220kts
30-Dec-20 13:03 45.720281 -110.149202 77 12970ft 220kts
30-Dec-20 13:03 45.725455 -110.075321 77 12967ft 203kts
30-Dec-20 13:05 45.732349 -109.976968 77 12971ft 202kts
30-Dec-20 13:06 45.759822 -109.909292 42 11828ft 188kts
30-Dec-20 13:06 45.787345 -109.855764 43 10669ft 188kts
30-Dec-20 13:07 45.820297 -109.791578 45 9306ft 192kts
30-Dec-20 13:08 45.854690 -109.724440 48 7926ft 196kts
30-Dec-20 13:09 45.904197 -109.680744 13 6971ft 174kts
30-Dec-20 13:10 45.930171 -109.619340 80 6971ft 186kts
30-Dec-20 13:11 45.925427 -109.548755 170 6972ft 151kts
30-Dec-20 13:12 45.888371 -109.554225 256 6963ft 122kts
30-Dec-20 13:13 45.878192 -109.604769 259 6364ft 118kts
30-Dec-20 13:14 45.870663 -109.654891 252 6372ft 121kts
30-Dec-20 13:15 45.861470 -109.702273 249 6369ft 115kts
30-Dec-20 13:16 45.852162 -109.749642 248 6371ft 120kts
30-Dec-20 13:17 45.842545 -109.798035 248 6353ft 122kts
30-Dec-20 13:18 45.832902 -109.847344 250 6193ft 107kts
30-Dec-20 13:19 45.827257 -109.875183 246 5760ft 70kts
30-Dec-20 13:20 45.820458 -109.909770 242 5170ft 88kts
30-Dec-20 13:21 45.814184 -109.944292 250 4969ft 87kts
30-Dec-20 13:22 45.807665 -109.974203 246 4496ft 14kts
30-Dec-20 13:23 45.808311 -109.974051 72 4496ft 5kts
30-Dec-20 13:24 45.808647 -109.974064 252 4496ft 0kts
30-Dec-20 13:25 45.808647 -109.974064 252 4496ft 0kts
30-Dec-20 13:26 45.808647 -109.974064 252 4496ft 0kts
30-Dec-20 13:27 45.808647 -109.974064 252 4496ft 0kts
30-Dec-20 13:28 45.808647 -109.974064 252 4496ft 0kts
30-Dec-20 13:29 45.808647 -109.974064 252 4496ft 0kts
30-Dec-20 13:30 45.808647 -109.974064 252 4496ft 0kts
30-Dec-20 13:31 45.808647 -109.974064 252 4496ft 0kts
30-Dec-20 13:32 45.808647 -109.974064 252 4496ft 0kts
30-Dec-20 13:33 45.808647 -109.974064 252 4496ft 0kts
30-Dec-20 13:34 45.808647 -109.974064 252 4496ft 0kts
30-Dec-20 13:35 45.808647 -109.974064 252 4496ft 0kts
30-Dec-20 13:36 45.808647 -109.974064 252 4496ft 0kts

Navigation Log

Ident Type
Flight plan parsing failed, navigation log unavailable